Time,TemperatureF,DewpointF,PressureIn,WindDirection,WindDirectionDegrees,WindSpeedMPH,WindSpeedGustMPH,Humidity,HourlyPrecipIn,Conditions,Clouds,dailyrainin,SoftwareType,DateUTC
2013-08-28 00:01:00,65.9,55.8,29.85,West,270,0.0,0.0,70,0.00,,,0.00,WUHU216HW,2013-08-28 07:01:00,
2013-08-28 00:06:00,65.7,55.7,29.85,WNW,293,0.0,0.0,70,0.00,,,0.00,WUHU216HW,2013-08-28 07:06:00,
2013-08-28 00:11:00,65.5,55.9,29.85,West,270,0.0,0.0,71,0.00,,,0.00,WUHU216HW,2013-08-28 07:11:00,
2013-08-28 00:16:00,65.3,55.7,29.85,West,270,0.0,0.0,71,0.00,,,0.00,WUHU216HW,2013-08-28 07:16:00,
2013-08-28 00:21:00,65.2,55.5,29.85,West,270,0.0,0.0,71,0.00,,,0.00,WUHU216HW,2013-08-28 07:21:00,
2013-08-28 00:26:00,65.3,55.7,29.85,West,270,0.0,0.0,71,0.00,,,0.00,WUHU216HW,2013-08-28 07:26:00,
2013-08-28 00:31:00,65.2,55.9,29.85,West,270,0.0,0.0,72,0.00,,,0.00,WUHU216HW,2013-08-28 07:31:00,
2013-08-28 00:36:00,65.2,55.9,29.85,West,270,0.0,0.0,72,0.00,,,0.00,WUHU216HW,2013-08-28 07:36:00,
2013-08-28 00:41:00,65.2,55.9,29.85,West,270,0.0,0.0,72,0.00,,,0.00,WUHU216HW,2013-08-28 07:41:00,
2013-08-28 00:46:00,65.2,56.3,29.85,West,270,0.0,0.0,73,0.00,,,0.00,WUHU216HW,2013-08-28 07:46:00,
2013-08-28 00:51:00,65.2,56.3,29.85,West,270,0.0,0.0,73,0.00,,,0.00,WUHU216HW,2013-08-28 07:51:00,
2013-08-28 00:56:00,65.2,56.3,29.86,West,270,0.0,0.0,73,0.00,,,0.00,WUHU216HW,2013-08-28 07:56:00,
2013-08-28 01:01:00,65.0,56.5,29.85,West,270,0.0,0.0,74,0.00,,,0.00,WUHU216HW,2013-08-28 08:01:00,
2013-08-28 01:06:00,64.6,56.2,29.86,West,270,0.0,0.0,74,0.00,,,0.00,WUHU216HW,2013-08-28 08:06:00,
2013-08-28 01:11:00,64.6,56.5,29.85,West,270,0.0,0.0,75,0.00,,,0.00,WUHU216HW,2013-08-28 08:11:00,
2013-08-28 01:16:00,64.6,56.5,29.85,West,270,0.0,0.0,75,0.00,,,0.00,WUHU216HW,2013-08-28 08:16:00,
2013-08-28 01:21:00,64.6,56.9,29.85,West,270,0.0,0.0,76,0.00,,,0.00,WUHU216HW,2013-08-28 08:21:00,
2013-08-28 01:26:00,64.6,56.9,29.85,West,270,0.0,0.0,76,0.00,,,0.00,WUHU216HW,2013-08-28 08:26:00,
2013-08-28 01:31:00,64.4,57.1,29.86,West,270,0.0,0.0,77,0.00,,,0.00,WUHU216HW,2013-08-28 08:31:00,
2013-08-28 01:36:00,64.4,57.1,29.86,West,270,0.0,0.0,77,0.00,,,0.00,WUHU216HW,2013-08-28 08:36:00,
2013-08-28 01:41:00,64.4,57.4,29.86,West,270,0.0,0.0,78,0.01,,,0.01,WUHU216HW,2013-08-28 08:41:00,
2013-08-28 01:46:00,64.4,57.8,29.85,West,270,0.0,0.0,79,0.01,,,0.01,WUHU216HW,2013-08-28 08:46:00,
2013-08-28 01:51:00,64.4,57.8,29.86,West,270,0.0,0.0,79,0.01,,,0.01,WUHU216HW,2013-08-28 08:51:00,
2013-08-28 01:56:00,64.4,57.8,29.85,West,270,0.0,0.0,79,0.01,,,0.01,WUHU216HW,2013-08-28 08:56:00,
2013-08-28 02:01:00,64.3,57.6,29.85,West,270,0.0,0.0,79,0.01,,,0.01,WUHU216HW,2013-08-28 09:01:00,
2013-08-28 02:06:00,64.3,58.0,29.85,West,270,0.0,0.0,80,0.01,,,0.01,WUHU216HW,2013-08-28 09:06:00,
2013-08-28 02:11:00,64.3,58.0,29.85,West,270,0.0,0.0,80,0.01,,,0.01,WUHU216HW,2013-08-28 09:11:00,
2013-08-28 02:16:00,64.1,57.8,29.85,West,270,0.0,0.0,80,0.01,,,0.01,WUHU216HW,2013-08-28 09:16:00,
2013-08-28 02:21:00,64.1,57.4,29.85,West,270,0.0,0.0,79,0.01,,,0.01,WUHU216HW,2013-08-28 09:21:00,
2013-08-28 02:26:00,64.1,57.4,29.85,West,270,0.0,0.0,79,0.01,,,0.01,WUHU216HW,2013-08-28 09:26:00,
2013-08-28 02:31:00,64.1,57.8,29.85,West,270,0.0,0.0,80,0.01,,,0.01,WUHU216HW,2013-08-28 09:31:00,
2013-08-28 02:34:00,64.1,57.8,29.85,West,270,0.0,0.0,80,0.01,,,0.01,WUHU216HW,2013-08-28 09:34:00,
2013-08-28 02:39:00,64.1,57.8,29.85,West,270,0.0,0.0,80,0.00,,,0.01,WUHU216HW,2013-08-28 09:39:00,
2013-08-28 02:44:00,64.1,57.8,29.85,West,270,0.0,0.0,80,0.00,,,0.01,WUHU216HW,2013-08-28 09:44:00,
2013-08-28 02:49:00,64.1,57.8,29.85,West,270,0.0,0.0,80,0.00,,,0.01,WUHU216HW,2013-08-28 09:49:00,
2013-08-28 02:54:00,63.9,58.0,29.85,West,270,0.0,0.0,81,0.00,,,0.01,WUHU216HW,2013-08-28 09:54:00,
2013-08-28 02:59:00,63.9,58.0,29.85,West,270,0.0,0.0,81,0.00,,,0.01,WUHU216HW,2013-08-28 09:59:00,
2013-08-28 03:04:00,63.9,58.0,29.85,West,270,0.0,0.0,81,0.00,,,0.01,WUHU216HW,2013-08-28 10:04:00,
2013-08-28 03:09:00,63.7,57.8,29.85,West,270,0.0,0.0,81,0.00,,,0.01,WUHU216HW,2013-08-28 10:09:00,
2013-08-28 03:14:00,63.7,57.8,29.85,West,270,0.0,0.0,81,0.00,,,0.01,WUHU216HW,2013-08-28 10:14:00,
2013-08-28 03:19:00,63.7,57.8,29.85,West,270,0.0,0.0,81,0.01,,,0.02,WUHU216HW,2013-08-28 10:19:00,
2013-08-28 03:24:00,63.7,57.8,29.85,West,270,0.0,0.0,81,0.01,,,0.02,WUHU216HW,2013-08-28 10:24:00,
2013-08-28 03:29:00,63.4,57.4,29.85,West,270,0.0,0.0,81,0.01,,,0.02,WUHU216HW,2013-08-28 10:29:00,
2013-08-28 03:34:00,63.4,57.8,29.85,West,270,0.0,0.0,82,0.01,,,0.02,WUHU216HW,2013-08-28 10:34:00,
2013-08-28 03:39:00,63.4,57.8,29.85,West,270,0.0,0.0,82,0.01,,,0.02,WUHU216HW,2013-08-28 10:39:00,
2013-08-28 03:44:00,63.4,57.8,29.86,West,270,0.0,0.0,82,0.01,,,0.02,WUHU216HW,2013-08-28 10:44:00,
2013-08-28 03:49:00,63.4,57.8,29.85,West,270,0.0,0.0,82,0.01,,,0.02,WUHU216HW,2013-08-28 10:49:00,
2013-08-28 03:54:00,63.2,57.6,29.85,West,270,0.0,0.0,82,0.02,,,0.03,WUHU216HW,2013-08-28 10:54:00,
2013-08-28 03:59:00,63.2,57.6,29.85,West,270,0.0,0.0,82,0.02,,,0.03,WUHU216HW,2013-08-28 10:59:00,
2013-08-28 04:04:00,63.2,57.6,29.86,West,270,0.0,0.0,82,0.02,,,0.03,WUHU216HW,2013-08-28 11:04:00,
2013-08-28 04:09:00,63.0,57.4,29.85,West,270,0.0,0.0,82,0.02,,,0.03,WUHU216HW,2013-08-28 11:09:00,
2013-08-28 04:14:00,63.0,57.4,29.86,West,270,0.0,0.0,82,0.03,,,0.04,WUHU216HW,2013-08-28 11:14:00,
2013-08-28 04:19:00,63.0,57.7,29.86,West,270,0.0,0.0,83,0.02,,,0.04,WUHU216HW,2013-08-28 11:19:00,
2013-08-28 04:24:00,62.8,57.5,29.86,West,270,0.0,0.0,83,0.03,,,0.05,WUHU216HW,2013-08-28 11:24:00,
2013-08-28 04:29:00,62.6,57.3,29.85,West,270,0.0,0.0,83,0.04,,,0.06,WUHU216HW,2013-08-28 11:29:00,
2013-08-28 04:34:00,62.6,57.3,29.85,West,270,0.0,0.0,83,0.05,,,0.08,WUHU216HW,2013-08-28 11:34:00,
2013-08-28 04:39:00,62.5,57.3,29.85,West,270,0.0,0.0,83,0.05,,,0.08,WUHU216HW,2013-08-28 11:39:00,
2013-08-28 04:44:00,62.3,57.1,29.86,West,270,0.0,0.0,83,0.05,,,0.08,WUHU216HW,2013-08-28 11:44:00,
2013-08-28 04:49:00,62.3,57.1,29.85,West,270,0.0,0.0,83,0.07,,,0.09,WUHU216HW,2013-08-28 11:49:00,
2013-08-28 04:54:00,62.3,57.1,29.85,West,270,0.0,0.0,83,0.06,,,0.09,WUHU216HW,2013-08-28 11:54:00,
2013-08-28 04:59:00,62.1,57.3,29.85,West,270,0.0,0.0,84,0.07,,,0.10,WUHU216HW,2013-08-28 11:59:00,
2013-08-28 05:03:00,61.9,57.1,29.85,West,270,0.0,0.0,84,0.07,,,0.10,WUHU216HW,2013-08-28 12:03:00,
2013-08-28 05:08:00,61.9,57.3,29.85,West,270,0.0,0.0,85,0.09,,,0.13,WUHU216HW,2013-08-28 12:08:00,
2013-08-28 05:13:00,62.1,57.5,29.85,West,270,0.0,0.0,85,0.09,,,0.13,WUHU216HW,2013-08-28 12:13:00,
2013-08-28 05:18:00,62.3,57.7,29.85,West,270,0.0,0.0,85,0.10,,,0.15,WUHU216HW,2013-08-28 12:18:00,
2013-08-28 05:23:00,62.3,57.7,29.86,West,270,0.0,0.0,85,0.08,,,0.15,WUHU216HW,2013-08-28 12:23:00,
2013-08-28 05:28:00,62.3,58.1,29.86,West,270,0.0,0.0,86,0.08,,,0.15,WUHU216HW,2013-08-28 12:28:00,
2013-08-28 05:33:00,62.5,58.2,29.85,West,270,0.0,0.0,86,0.08,,,0.15,WUHU216HW,2013-08-28 12:33:00,
2013-08-28 05:38:00,62.6,58.4,29.86,West,270,0.0,0.0,86,0.08,,,0.15,WUHU216HW,2013-08-28 12:38:00,
2013-08-28 05:43:00,62.6,58.8,29.86,West,270,0.0,0.0,87,0.06,,,0.15,WUHU216HW,2013-08-28 12:43:00,
2013-08-28 05:48:00,62.6,58.8,29.86,West,270,0.0,0.0,87,0.06,,,0.15,WUHU216HW,2013-08-28 12:48:00,
2013-08-28 05:53:00,62.6,58.8,29.86,West,270,0.0,0.0,87,0.05,,,0.15,WUHU216HW,2013-08-28 12:53:00,
2013-08-28 05:58:00,62.8,59.0,29.86,West,270,0.0,0.0,87,0.05,,,0.15,WUHU216HW,2013-08-28 12:58:00,
2013-08-28 06:03:00,62.8,59.0,29.86,West,270,0.0,0.0,87,0.02,,,0.15,WUHU216HW,2013-08-28 13:03:00,
2013-08-28 06:08:00,62.8,59.0,29.86,West,270,0.0,0.0,87,0.02,,,0.15,WUHU216HW,2013-08-28 13:08:00,
2013-08-28 06:13:00,62.8,59.0,29.86,West,270,0.0,0.0,87,0.01,,,0.15,WUHU216HW,2013-08-28 13:13:00,
2013-08-28 06:18:00,63.0,59.1,29.86,West,270,0.0,0.0,87,0.01,,,0.15,WUHU216HW,2013-08-28 13:18:00,
2013-08-28 06:23:00,63.0,59.1,29.86,West,270,0.0,0.0,87,0.01,,,0.15,WUHU216HW,2013-08-28 13:23:00,
2013-08-28 06:28:00,63.0,59.4,29.87,West,270,0.0,0.0,88,0.00,,,0.15,WUHU216HW,2013-08-28 13:28:00,
2013-08-28 06:33:00,63.0,59.4,29.87,West,270,0.0,0.0,88,0.00,,,0.15,WUHU216HW,2013-08-28 13:33:00,
2013-08-28 06:38:00,63.0,59.4,29.87,West,270,0.0,0.0,88,0.00,,,0.15,WUHU216HW,2013-08-28 13:38:00,
2013-08-28 06:43:00,63.0,59.4,29.87,West,270,0.0,0.0,88,0.00,,,0.15,WUHU216HW,2013-08-28 13:43:00,
2013-08-28 06:48:00,63.2,59.6,29.87,West,270,0.0,0.0,88,0.00,,,0.15,WUHU216HW,2013-08-28 13:48:00,
2013-08-28 06:53:00,63.2,59.6,29.87,West,270,0.0,0.0,88,0.00,,,0.15,WUHU216HW,2013-08-28 13:53:00,
2013-08-28 06:58:00,63.2,59.6,29.87,West,270,0.0,0.0,88,0.00,,,0.15,WUHU216HW,2013-08-28 13:58:00,
2013-08-28 07:03:00,63.2,59.6,29.87,West,270,0.0,0.0,88,0.00,,,0.15,WUHU216HW,2013-08-28 14:03:00,
2013-08-28 07:08:00,63.4,59.8,29.87,West,270,0.0,0.0,88,0.00,,,0.15,WUHU216HW,2013-08-28 14:08:00,
2013-08-28 07:13:00,63.4,60.1,29.87,West,270,0.0,0.0,89,0.00,,,0.15,WUHU216HW,2013-08-28 14:13:00,
2013-08-28 07:18:00,63.4,60.1,29.87,West,270,0.0,0.0,89,0.00,,,0.15,WUHU216HW,2013-08-28 14:18:00,
2013-08-28 07:23:00,63.5,59.9,29.87,West,270,0.0,0.0,88,0.00,,,0.15,WUHU216HW,2013-08-28 14:23:00,
2013-08-28 07:28:00,63.5,59.9,29.87,West,270,0.0,0.0,88,0.00,,,0.15,WUHU216HW,2013-08-28 14:28:00,
2013-08-28 07:33:00,63.7,60.5,29.87,West,270,0.0,0.0,89,0.00,,,0.15,WUHU216HW,2013-08-28 14:33:00,
2013-08-28 07:38:00,63.7,60.5,29.87,West,270,0.0,0.0,89,0.00,,,0.15,WUHU216HW,2013-08-28 14:38:00,
2013-08-28 07:43:00,63.7,60.5,29.88,West,270,0.0,0.0,89,0.00,,,0.15,WUHU216HW,2013-08-28 14:43:00,
2013-08-28 07:48:00,63.7,60.5,29.88,West,270,0.0,0.0,89,0.00,,,0.15,WUHU216HW,2013-08-28 14:48:00,
2013-08-28 07:53:00,63.7,60.5,29.88,West,270,0.0,0.0,89,0.00,,,0.15,WUHU216HW,2013-08-28 14:53:00,
2013-08-28 07:58:00,63.7,60.5,29.88,West,270,0.0,0.0,89,0.00,,,0.15,WUHU216HW,2013-08-28 14:58:00,
2013-08-28 08:03:00,63.9,60.7,29.88,West,270,0.0,0.0,89,0.00,,,0.15,WUHU216HW,2013-08-28 15:03:00,
2013-08-28 08:08:00,63.9,60.7,29.87,West,270,0.0,0.0,89,0.00,,,0.15,WUHU216HW,2013-08-28 15:08:00,
2013-08-28 08:13:00,64.1,60.8,29.88,West,270,0.0,0.0,89,0.00,,,0.15,WUHU216HW,2013-08-28 15:13:00,
2013-08-28 08:18:00,64.1,60.8,29.88,West,270,0.0,0.0,89,0.00,,,0.15,WUHU216HW,2013-08-28 15:18:00,
2013-08-28 08:23:00,64.1,60.8,29.88,West,270,0.0,0.0,89,0.00,,,0.15,WUHU216HW,2013-08-28 15:23:00,
2013-08-28 08:28:00,64.4,61.2,29.88,West,270,0.0,0.0,89,0.00,,,0.15,WUHU216HW,2013-08-28 15:28:00,
2013-08-28 08:33:00,64.4,61.2,29.88,West,270,0.0,0.0,89,0.00,,,0.15,WUHU216HW,2013-08-28 15:33:00,
2013-08-28 08:38:00,64.6,61.4,29.88,West,270,0.0,0.0,89,0.00,,,0.15,WUHU216HW,2013-08-28 15:38:00,
2013-08-28 08:43:00,64.6,61.4,29.88,West,270,0.0,0.0,89,0.00,,,0.15,WUHU216HW,2013-08-28 15:43:00,
2013-08-28 08:48:00,65.0,61.8,29.88,West,270,0.0,0.0,89,0.00,,,0.15,WUHU216HW,2013-08-28 15:48:00,
2013-08-28 08:53:00,65.3,62.0,29.88,West,270,0.0,0.0,89,0.00,,,0.15,WUHU216HW,2013-08-28 15:53:00,
2013-08-28 08:58:00,65.3,62.0,29.88,West,270,0.0,0.0,89,0.00,,,0.15,WUHU216HW,2013-08-28 15:58:00,
2013-08-28 09:03:00,65.5,61.8,29.88,West,270,0.0,0.0,88,0.00,,,0.15,WUHU216HW,2013-08-28 16:03:00,
2013-08-28 09:08:00,65.9,62.6,29.88,West,270,0.0,0.0,89,0.00,,,0.15,WUHU216HW,2013-08-28 16:08:00,
2013-08-28 09:13:00,66.1,62.7,29.88,West,270,0.0,0.0,89,0.00,,,0.15,WUHU216HW,2013-08-28 16:13:00,
2013-08-28 09:18:00,66.2,62.8,29.88,West,270,0.0,0.0,89,0.00,,,0.15,WUHU216HW,2013-08-28 16:18:00,
2013-08-28 09:23:00,66.4,62.7,29.88,West,270,0.0,0.0,88,0.00,,,0.15,WUHU216HW,2013-08-28 16:23:00,
2013-08-28 09:28:00,66.4,62.7,29.88,West,270,0.0,0.0,88,0.00,,,0.15,WUHU216HW,2013-08-28 16:28:00,
2013-08-28 09:33:00,66.6,62.9,29.88,West,270,0.0,0.0,88,0.00,,,0.15,WUHU216HW,2013-08-28 16:33:00,
2013-08-28 09:38:00,67.0,63.3,29.88,West,270,0.0,0.0,88,0.00,,,0.15,WUHU216HW,2013-08-28 16:38:00,
2013-08-28 09:43:00,67.3,63.9,29.88,West,270,0.0,0.0,89,0.00,,,0.15,WUHU216HW,2013-08-28 16:43:00,
2013-08-28 09:48:00,68.0,64.4,29.89,West,270,0.0,0.0,88,0.00,,,0.15,WUHU216HW,2013-08-28 16:48:00,
2013-08-28 09:53:00,68.6,64.9,29.88,West,270,0.0,0.0,88,0.00,,,0.15,WUHU216HW,2013-08-28 16:53:00,
2013-08-28 09:58:00,69.5,65.4,29.89,West,270,0.0,0.0,87,0.00,,,0.15,WUHU216HW,2013-08-28 16:58:00,
2013-08-28 10:03:00,69.7,65.6,29.89,West,270,0.0,0.0,87,0.00,,,0.15,WUHU216HW,2013-08-28 17:03:00,
2013-08-28 10:08:00,70.0,65.3,29.89,West,270,0.0,0.0,85,0.00,,,0.15,WUHU216HW,2013-08-28 17:08:00,
2013-08-28 10:13:00,69.8,65.1,29.89,West,270,0.0,0.0,85,0.00,,,0.15,WUHU216HW,2013-08-28 17:13:00,
2013-08-28 10:18:00,70.2,65.1,29.89,West,270,0.0,0.0,84,0.00,,,0.15,WUHU216HW,2013-08-28 17:18:00,
2013-08-28 10:23:00,70.6,65.4,29.89,West,270,0.0,0.0,84,0.00,,,0.15,WUHU216HW,2013-08-28 17:23:00,
2013-08-28 10:28:00,70.7,65.6,29.90,West,270,0.0,0.0,84,0.00,,,0.15,WUHU216HW,2013-08-28 17:28:00,
2013-08-28 10:33:00,71.3,66.2,29.90,West,270,0.0,0.0,84,0.00,,,0.15,WUHU216HW,2013-08-28 17:33:00,
2013-08-28 10:38:00,72.4,66.6,29.90,West,270,0.0,0.0,82,0.00,,,0.15,WUHU216HW,2013-08-28 17:38:00,
2013-08-28 10:43:00,72.9,66.8,29.89,West,270,0.0,0.0,81,0.00,,,0.15,WUHU216HW,2013-08-28 17:43:00,
2013-08-28 10:48:00,73.4,67.0,29.90,West,270,0.0,0.0,80,0.00,,,0.15,WUHU216HW,2013-08-28 17:48:00,
2013-08-28 10:53:00,73.8,66.6,29.90,WSW,248,0.0,0.0,78,0.00,,,0.15,WUHU216HW,2013-08-28 17:53:00,
2013-08-28 10:58:00,74.0,66.3,29.90,WSW,248,0.0,0.0,77,0.00,,,0.15,WUHU216HW,2013-08-28 17:58:00,
2013-08-28 11:03:00,74.2,66.5,29.89,WSW,248,0.0,0.0,77,0.00,,,0.15,WUHU216HW,2013-08-28 18:03:00,
2013-08-28 11:08:00,74.2,66.2,29.90,WSW,248,0.0,0.0,76,0.00,,,0.15,WUHU216HW,2013-08-28 18:08:00,
2013-08-28 11:13:00,74.7,66.2,29.90,WSW,248,0.0,0.0,75,0.00,,,0.15,WUHU216HW,2013-08-28 18:13:00,
2013-08-28 11:18:00,75.1,66.6,29.90,WSW,248,0.0,0.0,75,0.00,,,0.15,WUHU216HW,2013-08-28 18:18:00,
2013-08-28 11:23:00,75.1,66.3,29.90,WSW,248,0.0,0.0,74,0.00,,,0.15,WUHU216HW,2013-08-28 18:23:00,
2013-08-28 11:28:00,75.2,66.4,29.90,WSW,248,0.0,0.0,74,0.00,,,0.15,WUHU216HW,2013-08-28 18:28:00,
2013-08-28 11:33:00,75.4,66.2,29.90,WSW,248,0.0,0.0,73,0.00,,,0.15,WUHU216HW,2013-08-28 18:33:00,
2013-08-28 11:38:00,75.6,66.0,29.90,WSW,248,0.0,0.0,72,0.00,,,0.15,WUHU216HW,2013-08-28 18:38:00,
2013-08-28 11:43:00,75.6,66.0,29.89,WSW,248,0.0,0.0,72,0.00,,,0.15,WUHU216HW,2013-08-28 18:43:00,
2013-08-28 11:48:00,75.8,65.7,29.90,WSW,248,0.0,0.0,71,0.00,,,0.15,WUHU216HW,2013-08-28 18:48:00,
2013-08-28 11:53:00,75.6,65.5,29.90,WSW,248,0.0,0.0,71,0.00,,,0.15,WUHU216HW,2013-08-28 18:53:00,
2013-08-28 11:58:00,75.6,65.5,29.90,WSW,248,0.0,0.0,71,0.00,,,0.15,WUHU216HW,2013-08-28 18:58:00,
2013-08-28 12:03:00,75.8,65.3,29.90,WSW,248,0.0,0.0,70,0.00,,,0.15,WUHU216HW,2013-08-28 19:03:00,
2013-08-28 12:08:00,75.6,64.7,29.90,WSW,248,0.0,0.0,69,0.00,,,0.15,WUHU216HW,2013-08-28 19:08:00,
2013-08-28 12:13:00,75.6,64.7,29.90,WSW,248,0.0,0.0,69,0.00,,,0.15,WUHU216HW,2013-08-28 19:13:00,
2013-08-28 12:18:00,75.6,64.7,29.90,WSW,248,0.0,0.0,69,0.00,,,0.15,WUHU216HW,2013-08-28 19:18:00,
2013-08-28 12:23:00,76.0,64.6,29.90,WSW,248,0.0,0.0,68,0.00,,,0.15,WUHU216HW,2013-08-28 19:23:00,
2013-08-28 12:28:00,76.1,64.8,29.90,West,270,0.0,0.0,68,0.00,,,0.15,WUHU216HW,2013-08-28 19:28:00,
2013-08-28 12:33:00,76.3,65.0,29.90,WSW,248,0.0,0.0,68,0.00,,,0.15,WUHU216HW,2013-08-28 19:33:00,
2013-08-28 12:38:00,76.5,65.2,29.90,WSW,248,0.0,0.0,68,0.00,,,0.15,WUHU216HW,2013-08-28 19:38:00,
2013-08-28 12:43:00,76.7,64.9,29.90,WSW,248,0.0,0.0,67,0.00,,,0.15,WUHU216HW,2013-08-28 19:43:00,
2013-08-28 12:48:00,76.7,64.9,29.90,WSW,248,0.0,0.0,67,0.00,,,0.15,WUHU216HW,2013-08-28 19:48:00,
2013-08-28 12:53:00,76.7,64.9,29.90,WSW,248,0.0,0.0,67,0.00,,,0.15,WUHU216HW,2013-08-28 19:53:00,
2013-08-28 12:58:00,76.7,64.9,29.90,WSW,248,0.0,0.0,67,0.00,,,0.15,WUHU216HW,2013-08-28 19:58:00,
2013-08-28 13:03:00,76.9,65.5,29.90,WSW,248,0.0,0.0,68,0.00,,,0.15,WUHU216HW,2013-08-28 20:03:00,
2013-08-28 13:08:00,76.9,65.1,29.90,WSW,248,0.0,0.0,67,0.00,,,0.15,WUHU216HW,2013-08-28 20:08:00,
2013-08-28 13:13:00,77.0,65.3,29.90,West,270,0.0,0.0,67,0.00,,,0.15,WUHU216HW,2013-08-28 20:13:00,
2013-08-28 13:18:00,77.2,65.4,29.90,WSW,248,0.0,0.0,67,0.00,,,0.15,WUHU216HW,2013-08-28 20:18:00,
2013-08-28 13:23:00,77.2,65.0,29.90,West,270,0.0,0.0,66,0.00,,,0.15,WUHU216HW,2013-08-28 20:23:00,
2013-08-28 13:28:00,77.4,65.2,29.90,WSW,248,0.0,0.0,66,0.00,,,0.15,WUHU216HW,2013-08-28 20:28:00,
2013-08-28 13:33:00,77.4,65.2,29.90,WSW,248,0.0,0.0,66,0.00,,,0.15,WUHU216HW,2013-08-28 20:33:00,
2013-08-28 13:38:00,77.2,65.0,29.90,WSW,248,0.0,0.0,66,0.00,,,0.15,WUHU216HW,2013-08-28 20:38:00,
2013-08-28 13:43:00,77.4,65.2,29.90,WSW,248,0.0,0.0,66,0.00,,,0.15,WUHU216HW,2013-08-28 20:43:00,
2013-08-28 13:48:00,77.0,64.8,29.90,West,270,0.0,0.0,66,0.00,,,0.15,WUHU216HW,2013-08-28 20:48:00,
2013-08-28 13:53:00,77.0,64.8,29.90,West,270,0.0,0.0,66,0.00,,,0.15,WUHU216HW,2013-08-28 20:53:00,
2013-08-28 13:58:00,77.0,64.8,29.90,West,270,0.0,0.0,66,0.00,,,0.15,WUHU216HW,2013-08-28 20:58:00,
2013-08-28 14:03:00,77.0,64.8,29.90,West,270,0.0,0.0,66,0.00,,,0.15,WUHU216HW,2013-08-28 21:03:00,
2013-08-28 14:08:00,77.4,65.2,29.90,West,270,0.0,0.0,66,0.00,,,0.15,WUHU216HW,2013-08-28 21:08:00,
2013-08-28 14:13:00,77.6,64.9,29.90,West,270,0.0,0.0,65,0.00,,,0.15,WUHU216HW,2013-08-28 21:13:00,
2013-08-28 14:18:00,77.6,64.9,29.90,West,270,0.0,0.0,65,0.00,,,0.15,WUHU216HW,2013-08-28 21:18:00,
2013-08-28 14:23:00,77.8,64.6,29.89,WSW,248,0.0,0.0,64,0.00,,,0.15,WUHU216HW,2013-08-28 21:23:00,
2013-08-28 14:28:00,77.6,64.0,29.90,West,270,0.0,0.0,63,0.00,,,0.15,WUHU216HW,2013-08-28 21:28:00,
2013-08-28 14:33:00,77.4,64.3,29.89,WSW,248,0.0,0.0,64,0.00,,,0.15,WUHU216HW,2013-08-28 21:33:00,
2013-08-28 14:38:00,77.4,64.3,29.89,West,270,0.0,0.0,64,0.00,,,0.15,WUHU216HW,2013-08-28 21:38:00,
2013-08-28 14:43:00,77.4,64.3,29.89,West,270,0.0,0.0,64,0.00,,,0.15,WUHU216HW,2013-08-28 21:43:00,
2013-08-28 14:48:00,77.4,64.3,29.89,West,270,0.0,0.0,64,0.00,,,0.15,WUHU216HW,2013-08-28 21:48:00,
2013-08-28 14:53:00,77.4,64.3,29.89,West,270,0.0,0.0,64,0.00,,,0.15,WUHU216HW,2013-08-28 21:53:00,
2013-08-28 14:58:00,77.4,64.3,29.88,West,270,0.0,0.0,64,0.00,,,0.15,WUHU216HW,2013-08-28 21:58:00,
2013-08-28 15:02:00,77.4,63.8,29.88,West,270,0.0,0.0,63,0.00,,,0.15,WUHU216HW,2013-08-28 22:02:00,
2013-08-28 15:07:00,77.4,64.3,29.89,West,270,0.0,0.0,64,0.00,,,0.15,WUHU216HW,2013-08-28 22:07:00,
2013-08-28 15:12:00,77.4,64.3,29.88,West,270,0.0,0.0,64,0.00,,,0.15,WUHU216HW,2013-08-28 22:12:00,
2013-08-28 15:17:00,77.2,63.6,29.89,West,270,0.0,0.0,63,0.00,,,0.15,WUHU216HW,2013-08-28 22:17:00,
2013-08-28 15:22:00,77.2,63.6,29.89,West,270,0.0,0.0,63,0.00,,,0.15,WUHU216HW,2013-08-28 22:22:00,
2013-08-28 15:27:00,77.4,63.8,29.88,West,270,0.0,0.0,63,0.00,,,0.15,WUHU216HW,2013-08-28 22:27:00,
2013-08-28 15:32:00,77.4,63.8,29.89,West,270,0.0,0.0,63,0.00,,,0.15,WUHU216HW,2013-08-28 22:32:00,
2013-08-28 15:37:00,77.6,63.6,29.88,West,270,0.0,0.0,62,0.00,,,0.15,WUHU216HW,2013-08-28 22:37:00,
2013-08-28 15:42:00,77.4,63.4,29.88,WSW,248,0.0,0.0,62,0.00,,,0.15,WUHU216HW,2013-08-28 22:42:00,
2013-08-28 15:47:00,77.4,62.9,29.88,WSW,248,0.0,0.0,61,0.00,,,0.15,WUHU216HW,2013-08-28 22:47:00,
2013-08-28 15:52:00,77.4,62.9,29.88,WSW,248,0.0,0.0,61,0.00,,,0.15,WUHU216HW,2013-08-28 22:52:00,
2013-08-28 15:57:00,77.4,63.4,29.88,WSW,248,0.0,0.0,62,0.00,,,0.15,WUHU216HW,2013-08-28 22:57:00,
2013-08-28 16:02:00,77.2,63.2,29.88,West,270,0.0,0.0,62,0.00,,,0.15,WUHU216HW,2013-08-28 23:02:00,
2013-08-28 16:07:00,77.2,62.7,29.88,West,270,0.0,0.0,61,0.00,,,0.15,WUHU216HW,2013-08-28 23:07:00,
2013-08-28 16:12:00,77.2,62.7,29.88,West,270,0.0,0.0,61,0.00,,,0.15,WUHU216HW,2013-08-28 23:12:00,
2013-08-28 16:17:00,77.2,62.7,29.88,West,270,0.0,0.0,61,0.00,,,0.15,WUHU216HW,2013-08-28 23:17:00,
2013-08-28 16:22:00,77.2,62.7,29.88,West,270,0.0,0.0,61,0.00,,,0.15,WUHU216HW,2013-08-28 23:22:00,
2013-08-28 16:27:00,76.9,62.4,29.88,West,270,0.0,0.0,61,0.00,,,0.15,WUHU216HW,2013-08-28 23:27:00,
2013-08-28 16:32:00,76.7,62.6,29.88,WSW,248,0.0,0.0,62,0.00,,,0.15,WUHU216HW,2013-08-28 23:32:00,
2013-08-28 16:37:00,76.7,62.6,29.87,West,270,0.0,0.0,62,0.00,,,0.15,WUHU216HW,2013-08-28 23:37:00,
2013-08-28 16:42:00,76.9,62.8,29.87,West,270,0.0,0.0,62,0.00,,,0.15,WUHU216HW,2013-08-28 23:42:00,
2013-08-28 16:47:00,76.7,62.6,29.88,West,270,0.0,0.0,62,0.00,,,0.15,WUHU216HW,2013-08-28 23:47:00,
2013-08-28 16:52:00,76.7,62.6,29.88,West,270,0.0,0.0,62,0.00,,,0.15,WUHU216HW,2013-08-28 23:52:00,
2013-08-28 16:57:00,76.7,62.6,29.88,West,270,0.0,0.0,62,0.00,,,0.15,WUHU216HW,2013-08-28 23:57:00,
2013-08-28 17:02:00,76.7,62.6,29.88,West,270,0.0,0.0,62,0.00,,,0.15,WUHU216HW,2013-08-29 00:02:00,
2013-08-28 17:07:00,76.9,62.8,29.88,West,270,0.0,0.0,62,0.00,,,0.15,WUHU216HW,2013-08-29 00:07:00,
2013-08-28 17:12:00,76.7,62.6,29.88,WSW,248,0.0,0.0,62,0.00,,,0.15,WUHU216HW,2013-08-29 00:12:00,
2013-08-28 17:17:00,76.7,62.6,29.88,West,270,0.0,0.0,62,0.00,,,0.15,WUHU216HW,2013-08-29 00:17:00,
2013-08-28 17:22:00,76.7,62.6,29.88,West,270,0.0,0.0,62,0.00,,,0.15,WUHU216HW,2013-08-29 00:22:00,
2013-08-28 17:27:00,76.9,62.8,29.88,West,270,0.0,0.0,62,0.00,,,0.15,WUHU216HW,2013-08-29 00:27:00,
2013-08-28 17:32:00,76.9,62.8,29.88,West,270,0.0,0.0,62,0.00,,,0.15,WUHU216HW,2013-08-29 00:32:00,
2013-08-28 17:37:00,76.9,62.8,29.88,West,270,0.0,0.0,62,0.00,,,0.15,WUHU216HW,2013-08-29 00:37:00,
2013-08-28 17:42:00,76.9,62.8,29.88,West,270,0.0,0.0,62,0.00,,,0.15,WUHU216HW,2013-08-29 00:42:00,
2013-08-28 17:47:00,76.7,62.6,29.87,West,270,0.0,0.0,62,0.00,,,0.15,WUHU216HW,2013-08-29 00:47:00,
2013-08-28 17:52:00,76.7,62.6,29.87,West,270,0.0,0.0,62,0.00,,,0.15,WUHU216HW,2013-08-29 00:52:00,
2013-08-28 17:57:00,76.7,62.6,29.87,West,270,0.0,0.0,62,0.00,,,0.15,WUHU216HW,2013-08-29 00:57:00,
2013-08-28 18:02:00,76.7,62.6,29.87,West,270,0.0,0.0,62,0.00,,,0.15,WUHU216HW,2013-08-29 01:02:00,
2013-08-28 18:08:00,76.7,62.6,29.87,West,270,0.0,0.0,62,0.00,,,0.15,WUHU216HW,2013-08-29 01:08:00,
2013-08-28 18:13:00,76.5,62.9,29.88,West,270,0.0,0.0,63,0.00,,,0.15,WUHU216HW,2013-08-29 01:13:00,
2013-08-28 18:18:00,76.3,62.4,29.87,West,270,0.0,0.0,62,0.00,,,0.15,WUHU216HW,2013-08-29 01:18:00,
2013-08-28 18:23:00,76.3,62.8,29.87,West,270,0.0,0.0,63,0.00,,,0.15,WUHU216HW,2013-08-29 01:23:00,
2013-08-28 18:28:00,76.3,62.8,29.87,West,270,0.0,0.0,63,0.00,,,0.15,WUHU216HW,2013-08-29 01:28:00,
2013-08-28 18:33:00,76.3,62.8,29.87,West,270,0.0,0.0,63,0.00,,,0.15,WUHU216HW,2013-08-29 01:33:00,
2013-08-28 18:38:00,76.3,62.8,29.87,West,270,0.0,0.0,63,0.00,,,0.15,WUHU216HW,2013-08-29 01:38:00,
2013-08-28 18:43:00,76.3,62.8,29.87,West,270,0.0,0.0,63,0.00,,,0.15,WUHU216HW,2013-08-29 01:43:00,
2013-08-28 18:48:00,76.3,62.8,29.87,West,270,0.0,0.0,63,0.00,,,0.15,WUHU216HW,2013-08-29 01:48:00,
2013-08-28 18:53:00,76.1,62.7,29.87,West,270,0.0,0.0,63,0.00,,,0.15,WUHU216HW,2013-08-29 01:53:00,
2013-08-28 18:58:00,76.1,62.7,29.87,West,270,0.0,0.0,63,0.00,,,0.15,WUHU216HW,2013-08-29 01:58:00,
2013-08-28 19:03:00,76.0,62.5,29.87,West,270,0.0,0.0,63,0.00,,,0.15,WUHU216HW,2013-08-29 02:03:00,
2013-08-28 19:08:00,76.0,62.5,29.87,West,270,0.0,0.0,63,0.00,,,0.15,WUHU216HW,2013-08-29 02:08:00,
2013-08-28 19:13:00,75.8,62.3,29.87,West,270,0.0,0.0,63,0.00,,,0.15,WUHU216HW,2013-08-29 02:13:00,
2013-08-28 19:18:00,75.6,62.1,29.87,West,270,0.0,0.0,63,0.00,,,0.15,WUHU216HW,2013-08-29 02:18:00,
2013-08-28 19:23:00,75.6,62.1,29.87,West,270,0.0,0.0,63,0.00,,,0.15,WUHU216HW,2013-08-29 02:23:00,
2013-08-28 19:28:00,75.2,61.7,29.87,West,270,0.0,0.0,63,0.00,,,0.15,WUHU216HW,2013-08-29 02:28:00,
2013-08-28 19:33:00,75.2,61.7,29.86,West,270,0.0,0.0,63,0.00,,,0.15,WUHU216HW,2013-08-29 02:33:00,
2013-08-28 19:38:00,75.1,62.0,29.87,West,270,0.0,0.0,64,0.00,,,0.15,WUHU216HW,2013-08-29 02:38:00,
2013-08-28 19:43:00,74.9,61.8,29.87,West,270,0.0,0.0,64,0.00,,,0.15,WUHU216HW,2013-08-29 02:43:00,
2013-08-28 19:48:00,74.9,61.8,29.87,West,270,0.0,0.0,64,0.00,,,0.15,WUHU216HW,2013-08-29 02:48:00,
2013-08-28 19:52:00,74.7,61.7,29.87,West,270,0.0,0.0,64,0.00,,,0.15,WUHU216HW,2013-08-29 02:52:00,
2013-08-28 19:58:00,74.5,61.6,29.87,West,270,0.0,0.0,64,0.00,,,0.15,WUHU216HW,2013-08-29 02:58:00,
2013-08-28 20:03:00,74.5,61.6,29.87,West,270,0.0,0.0,64,0.00,,,0.15,WUHU216HW,2013-08-29 03:03:00,
2013-08-28 20:08:00,74.3,61.8,29.87,West,270,0.0,0.0,65,0.00,,,0.15,WUHU216HW,2013-08-29 03:08:00,
2013-08-28 20:13:00,74.2,61.7,29.87,West,270,0.0,0.0,65,0.00,,,0.15,WUHU216HW,2013-08-29 03:13:00,
2013-08-28 20:18:00,74.2,61.7,29.87,West,270,0.0,0.0,65,0.00,,,0.15,WUHU216HW,2013-08-29 03:18:00,
2013-08-28 20:23:00,74.0,61.5,29.88,West,270,0.0,0.0,65,0.00,,,0.15,WUHU216HW,2013-08-29 03:23:00,
2013-08-28 20:28:00,73.8,61.8,29.88,West,270,0.0,0.0,66,0.00,,,0.15,WUHU216HW,2013-08-29 03:28:00,
2013-08-28 20:33:00,73.8,61.8,29.88,West,270,0.0,0.0,66,0.00,,,0.15,WUHU216HW,2013-08-29 03:33:00,
2013-08-28 20:38:00,73.6,61.6,29.88,West,270,0.0,0.0,66,0.00,,,0.15,WUHU216HW,2013-08-29 03:38:00,
2013-08-28 20:43:00,73.4,61.8,29.88,West,270,0.0,0.0,67,0.00,,,0.15,WUHU216HW,2013-08-29 03:43:00,
2013-08-28 20:48:00,73.4,61.8,29.88,West,270,0.0,0.0,67,0.00,,,0.15,WUHU216HW,2013-08-29 03:48:00,
2013-08-28 20:53:00,73.3,61.7,29.89,West,270,0.0,0.0,67,0.00,,,0.15,WUHU216HW,2013-08-29 03:53:00,
2013-08-28 20:58:00,73.1,61.9,29.89,West,270,0.0,0.0,68,0.00,,,0.15,WUHU216HW,2013-08-29 03:58:00,
2013-08-28 21:01:00,73.1,61.9,29.89,West,270,0.0,0.0,68,0.00,,,0.15,WUHU216HW,2013-08-29 04:01:00,
2013-08-28 21:06:00,73.1,61.9,29.89,West,270,0.0,0.0,68,0.00,,,0.15,WUHU216HW,2013-08-29 04:06:00,
2013-08-28 21:11:00,73.1,61.9,29.89,West,270,0.0,0.0,68,0.00,,,0.15,WUHU216HW,2013-08-29 04:11:00,
2013-08-28 21:16:00,72.9,61.7,29.89,West,270,0.0,0.0,68,0.00,,,0.15,WUHU216HW,2013-08-29 04:16:00,
2013-08-28 21:21:00,72.7,61.6,29.89,West,270,0.0,0.0,68,0.00,,,0.15,WUHU216HW,2013-08-29 04:21:00,
2013-08-28 21:26:00,72.7,61.6,29.90,West,270,0.0,0.0,68,0.00,,,0.15,WUHU216HW,2013-08-29 04:26:00,
2013-08-28 21:31:00,72.5,61.8,29.90,West,270,0.0,0.0,69,0.00,,,0.15,WUHU216HW,2013-08-29 04:31:00,
2013-08-28 21:36:00,72.4,61.7,29.90,West,270,0.0,0.0,69,0.00,,,0.15,WUHU216HW,2013-08-29 04:36:00,
2013-08-28 21:41:00,72.2,61.0,29.90,West,270,0.0,0.0,68,0.00,,,0.15,WUHU216HW,2013-08-29 04:41:00,
2013-08-28 21:46:00,71.6,60.9,29.90,West,270,0.0,0.0,69,0.00,,,0.15,WUHU216HW,2013-08-29 04:46:00,
2013-08-28 21:51:00,71.6,60.5,29.90,West,270,0.0,0.0,68,0.00,,,0.15,WUHU216HW,2013-08-29 04:51:00,
2013-08-28 21:56:00,71.6,60.5,29.90,West,270,0.0,0.0,68,0.00,,,0.15,WUHU216HW,2013-08-29 04:56:00,
2013-08-28 22:01:00,71.3,60.6,29.90,West,270,0.0,0.0,69,0.00,,,0.15,WUHU216HW,2013-08-29 05:01:00,
2013-08-28 22:06:00,71.3,60.6,29.90,West,270,0.0,0.0,69,0.00,,,0.15,WUHU216HW,2013-08-29 05:06:00,
2013-08-28 22:11:00,71.3,60.6,29.89,West,270,0.0,0.0,69,0.00,,,0.15,WUHU216HW,2013-08-29 05:11:00,
2013-08-28 22:16:00,71.1,60.4,29.89,West,270,0.0,0.0,69,0.00,,,0.15,WUHU216HW,2013-08-29 05:16:00,
2013-08-28 22:21:00,70.9,60.2,29.88,West,270,0.0,0.0,69,0.00,,,0.15,WUHU216HW,2013-08-29 05:21:00,
2013-08-28 22:26:00,70.9,60.2,29.88,West,270,0.0,0.0,69,0.00,,,0.15,WUHU216HW,2013-08-29 05:26:00,
2013-08-28 22:31:00,70.7,60.0,29.88,West,270,0.0,0.0,69,0.00,,,0.15,WUHU216HW,2013-08-29 05:31:00,
2013-08-28 22:36:00,70.7,60.5,29.88,West,270,0.0,0.0,70,0.00,,,0.15,WUHU216HW,2013-08-29 05:36:00,
2013-08-28 22:41:00,70.6,60.3,29.89,West,270,0.0,0.0,70,0.00,,,0.15,WUHU216HW,2013-08-29 05:41:00,
2013-08-28 22:46:00,70.6,60.3,29.89,West,270,0.0,0.0,70,0.00,,,0.15,WUHU216HW,2013-08-29 05:46:00,
2013-08-28 22:51:00,70.4,60.1,29.89,West,270,0.0,0.0,70,0.00,,,0.15,WUHU216HW,2013-08-29 05:51:00,
2013-08-28 22:56:00,70.2,59.9,29.89,West,270,0.0,0.0,70,0.00,,,0.15,WUHU216HW,2013-08-29 05:56:00,
2013-08-28 23:01:00,70.2,59.9,29.90,West,270,0.0,0.0,70,0.00,,,0.15,WUHU216HW,2013-08-29 06:01:00,
2013-08-28 23:06:00,70.0,59.8,29.89,West,270,0.0,0.0,70,0.00,,,0.15,WUHU216HW,2013-08-29 06:06:00,
2013-08-28 23:11:00,69.8,59.9,29.90,West,270,0.0,0.0,71,0.00,,,0.15,WUHU216HW,2013-08-29 06:11:00,
2013-08-28 23:16:00,69.8,59.9,29.89,West,270,0.0,0.0,71,0.00,,,0.15,WUHU216HW,2013-08-29 06:16:00,
2013-08-28 23:21:00,69.8,59.9,29.90,West,270,0.0,0.0,71,0.00,,,0.15,WUHU216HW,2013-08-29 06:21:00,
2013-08-28 23:26:00,69.8,59.9,29.90,West,270,0.0,0.0,71,0.00,,,0.15,WUHU216HW,2013-08-29 06:26:00,
2013-08-28 23:31:00,69.8,59.9,29.90,West,270,0.0,0.0,71,0.00,,,0.15,WUHU216HW,2013-08-29 06:31:00,
2013-08-28 23:36:00,69.7,60.2,29.90,West,270,0.0,0.0,72,0.00,,,0.15,WUHU216HW,2013-08-29 06:36:00,
2013-08-28 23:41:00,69.5,60.0,29.90,West,270,0.0,0.0,72,0.00,,,0.15,WUHU216HW,2013-08-29 06:41:00,
2013-08-28 23:46:00,69.7,60.2,29.90,West,270,0.0,0.0,72,0.00,,,0.15,WUHU216HW,2013-08-29 06:46:00,
2013-08-28 23:51:00,69.5,60.4,29.90,West,270,0.0,0.0,73,0.00,,,0.15,WUHU216HW,2013-08-29 06:51:00,
2013-08-28 23:56:00,69.3,60.2,29.91,West,270,0.0,0.0,73,0.00,,,0.15,WUHU216HW,2013-08-29 06:56:00,